Time;durP1;ratioP1;P1;durP2;ratioP2;P2;SDS_P1;SDS_P2;PMS_P1;PMS_P2;Temp;Humidity;BMP_temperature;BMP_pressure;BME280_temperature;BME280_humidity;BME280_pressure;Samples;Min_cycle;Max_cycle;Signal;HPM_P1;HPM_P2
2021/07/27 00:01:10;;;;;;;13.45;12.10;;;24.80;68.80;;;;;;5035512;28;20037;-48
2021/07/27 00:03:39;;;;;;;14.23;11.65;;;24.70;68.80;;;;;;5035713;28;20125;-49
2021/07/27 00:06:06;;;;;;;14.98;11.50;;;24.60;68.90;;;;;;5035766;28;20116;-51
2021/07/27 00:08:35;;;;;;;17.38;13.27;;;24.60;69.00;;;;;;5035727;28;20030;-48
2021/07/27 00:11:01;;;;;;;18.45;12.32;;;24.60;69.10;;;;;;5035803;28;20037;-47
2021/07/27 00:13:27;;;;;;;16.60;12.18;;;24.60;69.10;;;;;;5035815;28;20030;-44
2021/07/27 00:15:52;;;;;;;14.80;12.10;;;24.50;69.10;;;;;;5035363;28;20034;-44
2021/07/27 00:18:18;;;;;;;16.40;11.45;;;24.40;69.10;;;;;;5035604;28;20091;-48
2021/07/27 00:20:45;;;;;;;18.45;13.57;;;24.40;69.20;;;;;;5035703;28;20037;-51
2021/07/27 00:23:10;;;;;;;16.48;13.02;;;24.40;69.40;;;;;;5035213;28;20107;-48
2021/07/27 00:25:38;;;;;;;18.25;15.05;;;24.30;69.40;;;;;;5035723;28;20417;-49
2021/07/27 00:28:04;;;;;;;19.50;14.48;;;24.30;69.60;;;;;;5035925;28;20372;-51
2021/07/27 00:30:30;;;;;;;17.77;13.98;;;24.30;69.80;;;;;;5038217;28;20112;-50
2021/07/27 00:32:55;;;;;;;18.15;13.15;;;24.20;69.90;;;;;;5039405;28;20397;-52
2021/07/27 00:35:22;;;;;;;17.50;13.10;;;24.20;70.00;;;;;;5039301;28;20069;-46
2021/07/27 00:37:57;;;;;;;19.13;12.98;;;24.10;70.20;;;;;;5038865;28;20044;-51
2021/07/27 00:40:23;;;;;;;18.00;12.65;;;24.10;70.30;;;;;;5039525;28;20056;-46
2021/07/27 00:42:49;;;;;;;17.10;14.25;;;24.10;70.30;;;;;;5039072;28;20029;-44
2021/07/27 00:45:16;;;;;;;17.35;14.15;;;24.10;70.40;;;;;;5038695;28;20107;-50
2021/07/27 00:47:42;;;;;;;16.45;13.40;;;24.00;70.60;;;;;;5039069;28;20104;-46
2021/07/27 00:50:10;;;;;;;20.42;14.48;;;24.00;70.60;;;;;;5038806;28;20452;-49
2021/07/27 00:52:37;;;;;;;19.77;14.23;;;24.00;70.70;;;;;;5039020;28;20379;-43
2021/07/27 00:55:04;;;;;;;18.20;13.95;;;24.00;70.80;;;;;;5038927;28;20044;-45
2021/07/27 00:57:31;;;;;;;17.58;15.07;;;23.90;70.80;;;;;;5038840;28;20021;-50
2021/07/27 00:59:57;;;;;;;17.40;14.10;;;23.90;70.90;;;;;;5038816;28;20065;-44
2021/07/27 01:02:23;;;;;;;18.83;14.10;;;23.80;70.90;;;;;;5038589;28;20108;-45
2021/07/27 01:04:48;;;;;;;16.48;14.38;;;23.80;70.90;;;;;;5038569;28;20125;-52
2021/07/27 01:07:14;;;;;;;18.40;15.20;;;23.80;71.20;;;;;;5037292;28;20036;-45
2021/07/27 01:09:41;;;;;;;17.35;14.85;;;23.80;71.40;;;;;;5038510;28;20029;-50
2021/07/27 01:12:07;;;;;;;18.85;14.70;;;23.70;71.40;;;;;;5038402;28;20030;-44
2021/07/27 01:14:33;;;;;;;19.30;15.68;;;23.70;71.40;;;;;;5038196;28;20049;-50
2021/07/27 01:16:59;;;;;;;17.17;15.35;;;23.70;71.70;;;;;;5038678;28;20033;-52
2021/07/27 01:43:45;;;;;;;18.23;14.00;;;23.40;72.80;;;;;;5041219;28;20126;-46
2021/07/27 01:46:12;;;;;;;16.75;14.75;;;23.40;72.90;;;;;;5037827;28;20065;-49
2021/07/27 01:48:38;;;;;;;20.02;16.15;;;23.40;73.00;;;;;;5038201;28;20409;-48
2021/07/27 01:51:03;;;;;;;17.88;16.02;;;23.30;73.20;;;;;;5037759;28;20096;-45
2021/07/27 01:53:38;;;;;;;17.85;15.45;;;23.30;73.30;;;;;;5038178;28;20032;-49
2021/07/27 01:56:04;;;;;;;18.02;15.13;;;23.30;73.20;;;;;;5037651;28;20049;-47
2021/07/27 01:58:30;;;;;;;17.15;15.35;;;23.30;73.40;;;;;;5037366;28;20487;-44
2021/07/27 02:00:56;;;;;;;17.65;15.18;;;23.30;73.50;;;;;;5037941;28;20041;-53
2021/07/27 02:03:25;;;;;;;20.63;15.90;;;23.30;73.50;;;;;;5037623;28;20025;-52
2021/07/27 02:05:50;;;;;;;18.63;15.50;;;23.30;73.60;;;;;;5037634;28;20428;-45
2021/07/27 02:08:16;;;;;;;17.33;15.45;;;23.30;73.70;;;;;;5037389;28;20029;-47
2021/07/27 02:10:45;;;;;;;21.05;15.68;;;23.30;73.80;;;;;;5037623;28;20072;-51
2021/07/27 02:13:13;;;;;;;17.30;14.43;;;23.30;73.90;;;;;;5037459;28;20029;-49
2021/07/27 02:15:48;;;;;;;19.98;16.77;;;23.30;73.90;;;;;;5037628;28;20060;-45
2021/07/27 02:18:13;;;;;;;17.63;15.70;;;23.30;73.90;;;;;;5037309;28;20025;-48
2021/07/27 02:21:01;;;;;;;18.92;14.73;;;23.20;73.90;;;;;;5037569;28;20079;-51
2021/07/27 02:23:26;;;;;;;15.55;13.75;;;23.20;73.90;;;;;;5036861;28;20120;-48
2021/07/27 02:25:52;;;;;;;18.08;15.60;;;23.20;73.80;;;;;;5036091;28;20116;-46
2021/07/27 02:28:18;;;;;;;17.50;14.77;;;23.20;74.00;;;;;;5037372;28;20063;-46
2021/07/27 02:31:22;;;;;;;18.10;15.23;;;23.20;74.20;;;;;;5037116;28;20435;-46
2021/07/27 02:36:58;;;;;;;22.63;16.88;;;23.10;74.00;;;;;;5037042;28;20076;-47
2021/07/27 02:39:23;;;;;;;17.30;15.43;;;23.10;74.30;;;;;;5036552;28;20434;-50
2021/07/27 02:41:49;;;;;;;19.90;17.20;;;23.10;74.40;;;;;;5036716;28;20117;-52
2021/07/27 02:44:14;;;;;;;19.23;16.10;;;23.10;74.50;;;;;;5036579;28;20042;-50
2021/07/27 02:46:40;;;;;;;23.25;17.77;;;23.10;74.70;;;;;;5036681;28;20377;-46
2021/07/27 02:49:06;;;;;;;18.42;16.45;;;23.10;74.70;;;;;;5036379;28;20441;-45
2021/07/27 02:51:32;;;;;;;21.33;16.75;;;23.10;74.70;;;;;;5036293;28;20099;-52
2021/07/27 02:53:58;;;;;;;18.92;16.92;;;23.10;74.70;;;;;;5037040;28;20061;-49
2021/07/27 02:56:23;;;;;;;20.65;17.17;;;23.10;74.70;;;;;;5036454;28;20087;-52
2021/07/27 02:58:49;;;;;;;20.90;16.27;;;23.10;74.80;;;;;;5036869;28;20029;-51
2021/07/27 03:01:15;;;;;;;21.95;16.58;;;23.00;74.80;;;;;;5036394;28;20041;-48
2021/07/27 03:03:40;;;;;;;20.67;16.13;;;23.10;74.90;;;;;;5036552;28;20076;-51
2021/07/27 03:06:08;;;;;;;27.50;16.85;;;23.10;74.90;;;;;;5036163;28;20120;-50
2021/07/27 03:08:51;;;;;;;24.23;18.20;;;23.10;75.00;;;;;;5036567;28;20029;-44
2021/07/27 03:11:17;;;;;;;20.00;17.05;;;23.10;75.10;;;;;;5036361;28;20125;-44
2021/07/27 03:13:44;;;;;;;23.45;17.98;;;23.10;75.20;;;;;;5036549;28;20402;-51
2021/07/27 03:16:36;;;;;;;18.48;15.95;;;23.10;75.30;;;;;;5036115;28;20376;-51
2021/07/27 03:19:01;;;;;;;22.45;19.33;;;23.10;75.00;;;;;;5035417;28;20429;-48
2021/07/27 03:21:27;;;;;;;27.00;18.77;;;23.10;75.50;;;;;;5035878;28;20079;-46
2021/07/27 03:23:54;;;;;;;20.92;17.33;;;23.10;75.50;;;;;;5036342;28;20029;-49
2021/07/27 03:26:21;;;;;;;21.58;17.42;;;23.10;75.40;;;;;;5035927;28;20025;-51
2021/07/27 03:28:47;;;;;;;21.70;16.92;;;23.10;75.50;;;;;;5036226;28;20025;-50
2021/07/27 03:31:14;;;;;;;18.73;16.83;;;23.10;75.50;;;;;;5035657;28;20444;-48
2021/07/27 03:33:40;;;;;;;20.58;17.45;;;23.20;75.60;;;;;;5036274;28;20061;-48
2021/07/27 03:36:05;;;;;;;19.75;16.38;;;23.20;75.70;;;;;;5035823;28;20068;-48
2021/07/27 03:38:32;;;;;;;19.42;17.25;;;23.20;75.70;;;;;;5035705;28;20049;-49
2021/07/27 03:41:08;;;;;;;24.63;18.48;;;23.20;76.00;;;;;;5036031;28;20084;-49
2021/07/27 03:43:35;;;;;;;21.50;16.88;;;23.30;76.10;;;;;;5035974;28;20413;-49
2021/07/27 03:46:03;;;;;;;20.77;16.67;;;23.30;76.30;;;;;;5036087;28;20299;-50
2021/07/27 03:48:28;;;;;;;25.05;17.00;;;23.40;76.50;;;;;;5036006;28;20025;-50
2021/07/27 03:50:54;;;;;;;21.83;17.23;;;23.40;76.50;;;;;;5035930;28;20041;-49
2021/07/27 03:53:23;;;;;;;26.38;18.52;;;23.50;76.60;;;;;;5035268;28;20115;-52
2021/07/27 03:55:49;;;;;;;30.20;20.20;;;23.60;76.80;;;;;;5035998;28;20037;-52
2021/07/27 03:58:15;;;;;;;20.42;18.27;;;23.60;77.00;;;;;;5035783;28;20312;-51
2021/07/27 04:00:41;;;;;;;19.70;17.58;;;23.60;76.90;;;;;;5035662;28;20116;-46
2021/07/27 04:03:07;;;;;;;20.00;17.42;;;23.70;77.60;;;;;;5034750;28;20100;-51
2021/07/27 04:05:34;;;;;;;23.17;17.38;;;23.80;77.00;;;;;;5035639;28;20042;-44
2021/07/27 04:08:00;;;;;;;26.35;23.35;;;23.90;77.00;;;;;;5035355;28;20108;-48
2021/07/27 04:10:25;;;;;;;27.55;21.05;;;23.90;77.00;;;;;;5035748;28;20112;-49
2021/07/27 04:12:51;;;;;;;22.85;18.27;;;24.00;77.20;;;;;;5035645;28;20030;-50
2021/07/27 04:15:17;;;;;;;27.40;18.27;;;24.10;77.30;;;;;;5035533;28;20044;-51
2021/07/27 04:17:42;;;;;;;21.55;16.10;;;24.20;77.50;;;;;;5035456;28;20068;-46
2021/07/27 04:20:09;;;;;;;22.00;16.60;;;24.30;77.50;;;;;;5035282;28;20104;-47
2021/07/27 04:22:34;;;;;;;29.45;19.48;;;24.30;77.50;;;;;;5035324;28;20075;-45
2021/07/27 04:25:00;;;;;;;22.55;18.13;;;24.40;77.50;;;;;;5034911;28;20025;-48
2021/07/27 04:27:26;;;;;;;24.15;17.67;;;24.50;77.90;;;;;;5035125;28;20112;-44
2021/07/27 04:29:52;;;;;;;23.15;17.77;;;24.60;78.30;;;;;;5035244;28;20065;-45
2021/07/27 04:32:18;;;;;;;24.80;18.13;;;24.70;78.50;;;;;;5035043;28;20171;-44
2021/07/27 04:34:44;;;;;;;25.33;19.25;;;24.80;78.60;;;;;;5035350;28;20111;-50
2021/07/27 04:37:10;;;;;;;22.98;18.65;;;24.90;78.70;;;;;;5034954;28;20441;-48
2021/07/27 04:39:36;;;;;;;20.75;17.98;;;25.00;78.40;;;;;;5034759;28;20059;-49
2021/07/27 04:42:02;;;;;;;25.80;17.88;;;25.00;78.50;;;;;;5034567;28;20030;-47
2021/07/27 04:44:28;;;;;;;19.50;15.48;;;25.20;78.70;;;;;;5034938;28;20032;-44
2021/07/27 04:46:53;;;;;;;15.93;14.23;;;25.30;78.70;;;;;;5034983;28;20033;-50
2021/07/27 04:49:19;;;;;;;17.95;15.65;;;25.40;78.60;;;;;;5034858;28;20326;-46
2021/07/27 04:51:45;;;;;;;18.48;13.25;;;25.50;78.50;;;;;;5035270;28;20040;-49
2021/07/27 04:54:26;;;;;;;16.40;12.90;;;25.60;78.30;;;;;;5034869;28;20033;-50
2021/07/27 04:56:52;;;;;;;16.63;12.65;;;25.60;78.00;;;;;;5035064;28;20030;-46
2021/07/27 04:59:18;;;;;;;17.45;14.50;;;25.70;77.90;;;;;;5035151;28;20469;-48
2021/07/27 05:01:43;;;;;;;16.98;12.75;;;25.80;77.60;;;;;;5034400;28;20047;-46
2021/07/27 05:04:09;;;;;;;13.60;11.43;;;25.90;77.50;;;;;;5035135;28;20351;-48
2021/07/27 05:06:37;;;;;;;18.65;12.65;;;26.00;77.80;;;;;;5034504;28;20117;-50
2021/07/27 05:09:02;;;;;;;15.23;12.43;;;26.00;77.70;;;;;;5034985;28;20029;-52
2021/07/27 05:11:28;;;;;;;16.17;11.60;;;26.10;76.70;;;;;;5034913;28;20086;-50
2021/07/27 05:13:55;;;;;;;17.80;10.07;;;26.20;74.90;;;;;;5034964;28;20059;-46
2021/07/27 05:16:21;;;;;;;13.50;10.05;;;26.30;72.90;;;;;;5036867;28;20042;-46
2021/07/27 05:18:47;;;;;;;13.63;9.85;;;26.30;71.50;;;;;;5038576;28;20034;-52
2021/07/27 05:21:15;;;;;;;15.93;11.57;;;26.40;70.40;;;;;;5038062;28;20049;-48
2021/07/27 05:23:40;;;;;;;14.38;10.48;;;26.40;69.30;;;;;;5037833;28;20025;-51
2021/07/27 05:26:06;;;;;;;19.48;10.27;;;26.50;68.30;;;;;;5038155;28;20072;-48
2021/07/27 05:28:32;;;;;;;12.10;9.07;;;26.60;67.20;;;;;;5038182;28;20100;-48
2021/07/27 05:30:57;;;;;;;16.98;10.05;;;26.60;67.50;;;;;;5037907;28;20480;-49
2021/07/27 05:33:23;;;;;;;16.67;10.57;;;26.60;66.60;;;;;;5038010;28;20060;-49
2021/07/27 05:35:49;;;;;;;15.05;9.20;;;26.70;66.60;;;;;;5037933;28;20037;-52
2021/07/27 05:38:14;;;;;;;12.82;9.73;;;26.70;66.30;;;;;;5037231;28;20042;-45
2021/07/27 05:40:40;;;;;;;13.27;9.65;;;26.80;66.40;;;;;;5038112;28;20413;-43
2021/07/27 05:43:05;;;;;;;14.05;9.18;;;26.90;66.60;;;;;;5037261;28;20045;-48
2021/07/27 05:45:31;;;;;;;9.48;8.00;;;26.90;66.90;;;;;;5037699;28;20029;-49
2021/07/27 05:47:57;;;;;;;14.05;9.25;;;27.00;67.30;;;;;;5037415;28;20036;-51
2021/07/27 05:50:22;;;;;;;13.20;8.38;;;27.00;66.70;;;;;;5037674;28;20030;-52
2021/07/27 05:52:48;;;;;;;12.38;8.70;;;27.10;66.30;;;;;;5037674;28;20334;-51
2021/07/27 05:55:14;;;;;;;13.05;9.20;;;27.10;65.80;;;;;;5037459;28;20038;-45
2021/07/27 05:57:40;;;;;;;13.60;9.07;;;27.20;66.40;;;;;;5037227;28;20116;-49
2021/07/27 06:00:06;;;;;;;13.07;9.52;;;27.20;66.90;;;;;;5037199;28;20120;-50
2021/07/27 06:02:32;;;;;;;10.57;8.50;;;27.30;67.20;;;;;;5037111;28;20021;-49
2021/07/27 06:04:57;;;;;;;13.73;9.98;;;27.30;67.10;;;;;;5037077;28;20350;-50
2021/07/27 06:07:23;;;;;;;18.13;9.30;;;27.30;67.30;;;;;;5037352;28;20476;-45
2021/07/27 06:09:49;;;;;;;10.93;8.50;;;27.40;68.40;;;;;;5037191;28;20084;-50
2021/07/27 06:12:16;;;;;;;12.60;9.32;;;27.40;67.90;;;;;;5036849;28;20444;-50
2021/07/27 06:14:42;;;;;;;11.00;9.10;;;27.50;67.70;;;;;;5037386;28;20038;-53
2021/07/27 06:17:11;;;;;;;15.48;9.02;;;27.50;67.80;;;;;;5037164;28;20059;-51
2021/07/27 06:19:37;;;;;;;12.85;10.05;;;27.60;67.80;;;;;;5036716;28;20030;-48
2021/07/27 06:22:03;;;;;;;10.93;8.93;;;27.60;66.70;;;;;;5037143;28;20026;-47
2021/07/27 06:24:28;;;;;;;14.48;8.98;;;27.70;67.60;;;;;;5036492;28;20041;-52
2021/07/27 06:26:54;;;;;;;14.18;10.32;;;27.70;67.80;;;;;;5035953;28;20021;-49
2021/07/27 06:29:20;;;;;;;11.68;9.63;;;27.70;67.00;;;;;;5036662;28;20355;-46
2021/07/27 06:31:45;;;;;;;13.68;8.80;;;27.80;67.30;;;;;;5036669;28;20104;-46
2021/07/27 06:34:11;;;;;;;16.20;10.15;;;27.80;67.40;;;;;;5037061;28;20427;-50
2021/07/27 06:36:37;;;;;;;15.95;9.48;;;27.80;66.80;;;;;;5036638;28;20044;-50
2021/07/27 06:39:03;;;;;;;13.38;8.50;;;27.80;67.50;;;;;;5036577;28;20060;-47
2021/07/27 06:41:28;;;;;;;15.70;9.75;;;27.80;67.50;;;;;;5036656;28;20037;-50
2021/07/27 06:43:54;;;;;;;10.95;9.38;;;27.90;67.40;;;;;;5036959;28;20033;-48
2021/07/27 06:46:20;;;;;;;13.02;9.00;;;27.90;67.00;;;;;;5036443;28;20079;-49
2021/07/27 06:48:45;;;;;;;16.85;10.02;;;27.90;67.30;;;;;;5036882;28;20029;-46
2021/07/27 06:51:16;;;;;;;13.60;9.25;;;27.90;68.00;;;;;;5036310;28;20029;-48
2021/07/27 06:53:43;;;;;;;19.98;10.52;;;28.00;67.90;;;;;;5036658;28;20029;-44
2021/07/27 06:56:10;;;;;;;14.00;9.07;;;28.00;68.30;;;;;;5036479;28;20111;-46
2021/07/27 06:58:36;;;;;;;12.20;9.75;;;28.00;68.40;;;;;;5036731;28;20030;-49
2021/07/27 07:01:09;;;;;;;14.32;9.40;;;28.10;68.10;;;;;;5036307;28;20037;-47
2021/07/27 07:03:36;;;;;;;16.42;10.15;;;28.10;68.60;;;;;;5036111;28;20028;-52
2021/07/27 07:06:03;;;;;;;15.98;9.95;;;28.20;68.50;;;;;;5036041;28;20132;-50
2021/07/27 07:08:28;;;;;;;13.05;9.50;;;28.20;67.70;;;;;;5036136;28;20383;-48
2021/07/27 07:11:04;;;;;;;12.07;8.85;;;28.20;67.40;;;;;;5036473;28;20080;-49
2021/07/27 07:13:31;;;;;;;13.25;10.43;;;28.20;67.60;;;;;;5036195;28;20034;-53
2021/07/27 07:15:57;;;;;;;13.73;11.00;;;28.30;66.10;;;;;;5035562;28;20080;-53
2021/07/27 07:18:23;;;;;;;21.33;12.27;;;28.30;66.40;;;;;;5035972;28;20033;-52
2021/07/27 07:20:51;;;;;;;18.05;12.07;;;28.30;65.80;;;;;;5035971;28;20041;-50
2021/07/27 07:23:18;;;;;;;20.55;13.95;;;28.30;65.80;;;;;;5035232;28;20029;-46
2021/07/27 07:25:44;;;;;;;18.67;12.70;;;28.40;66.40;;;;;;5036113;28;20334;-46
2021/07/27 07:28:11;;;;;;;20.40;13.90;;;28.40;65.60;;;;;;5035780;28;20041;-47
2021/07/27 07:30:37;;;;;;;21.45;12.98;;;28.40;65.70;;;;;;5035881;28;20033;-47
2021/07/27 07:33:03;;;;;;;22.58;13.55;;;28.40;65.40;;;;;;5045288;28;20028;-44
2021/07/27 07:35:29;;;;;;;20.05;11.75;;;28.50;65.30;;;;;;5055751;28;20033;-45
2021/07/27 07:37:55;;;;;;;15.80;11.80;;;28.50;65.10;;;;;;5054176;28;20076;-44
2021/07/27 07:40:21;;;;;;;15.63;11.55;;;28.50;65.40;;;;;;5055387;28;20167;-46
2021/07/27 07:42:47;;;;;;;20.38;15.48;;;28.50;65.50;;;;;;5055220;28;20401;-48
2021/07/27 07:45:13;;;;;;;31.15;15.75;;;28.60;65.50;;;;;;5055138;28;20120;-49
2021/07/27 07:47:39;;;;;;;110.60;24.58;;;28.60;65.50;;;;;;5055271;28;20413;-46
2021/07/27 07:50:05;;;;;;;95.38;20.23;;;28.60;64.10;;;;;;5055572;28;20037;-49
2021/07/27 07:52:31;;;;;;;93.05;18.15;;;28.60;63.90;;;;;;5054761;28;20033;-46
2021/07/27 07:54:56;;;;;;;21.73;12.50;;;28.70;63.50;;;;;;5055255;28;20324;-50
2021/07/27 07:57:22;;;;;;;43.22;27.20;;;28.70;64.20;;;;;;5054725;28;20066;-47
2021/07/27 07:59:47;;;;;;;30.58;16.40;;;28.70;64.60;;;;;;5054860;28;20418;-50
2021/07/27 08:02:13;;;;;;;24.02;14.73;;;28.70;64.30;;;;;;5054185;28;20115;-51
2021/07/27 08:04:39;;;;;;;53.28;20.85;;;28.70;64.30;;;;;;5054455;28;20037;-48
2021/07/27 08:07:06;;;;;;;71.97;21.40;;;28.80;64.20;;;;;;5054843;28;20083;-46
2021/07/27 08:09:32;;;;;;;27.80;15.23;;;28.80;63.40;;;;;;5055300;28;20321;-52
2021/07/27 08:11:57;;;;;;;37.58;16.77;;;28.80;64.30;;;;;;5050416;28;20021;-48
2021/07/27 08:14:25;;;;;;;49.25;21.45;;;28.90;64.00;;;;;;5054835;28;20029;-48
2021/07/27 08:16:52;;;;;;;48.20;20.40;;;28.90;63.60;;;;;;5054628;28;20029;-49
2021/07/27 08:19:19;;;;;;;38.40;21.15;;;28.90;63.70;;;;;;5054396;28;20056;-52
2021/07/27 08:21:45;;;;;;;25.40;16.38;;;28.90;64.50;;;;;;5054596;28;20098;-52
2021/07/27 08:24:11;;;;;;;40.78;17.90;;;28.90;64.80;;;;;;5055192;28;20405;-50
2021/07/27 08:26:36;;;;;;;42.00;16.45;;;28.90;64.60;;;;;;5054414;28;20048;-50
2021/07/27 08:29:02;;;;;;;24.95;13.18;;;29.00;64.70;;;;;;5055161;28;20112;-48
2021/07/27 08:31:27;;;;;;;17.70;11.70;;;29.00;65.10;;;;;;5054581;28;20115;-47
2021/07/27 08:33:53;;;;;;;32.58;13.75;;;29.00;65.00;;;;;;5054671;28;20029;-49
2021/07/27 08:36:19;;;;;;;15.50;11.02;;;29.10;65.00;;;;;;5054582;28;20064;-51
2021/07/27 08:38:44;;;;;;;25.88;11.57;;;29.10;64.80;;;;;;5054718;28;20049;-46
2021/07/27 08:41:12;;;;;;;16.60;10.27;;;29.10;64.50;;;;;;5054076;28;20112;-47
2021/07/27 08:43:38;;;;;;;27.10;11.88;;;29.20;64.80;;;;;;5055144;28;20159;-44
2021/07/27 08:46:05;;;;;;;54.38;14.73;;;29.30;63.90;;;;;;5054318;28;20112;-49
2021/07/27 08:48:31;;;;;;;22.30;10.82;;;29.30;63.00;;;;;;5054380;28;20035;-50
2021/07/27 08:50:58;;;;;;;21.15;11.18;;;29.40;63.30;;;;;;5057892;28;20063;-51
2021/07/27 08:53:24;;;;;;;15.15;9.38;;;29.40;62.90;;;;;;5058761;28;20067;-44
2021/07/27 08:55:49;;;;;;;16.73;9.93;;;29.50;62.50;;;;;;5058128;28;20040;-44
2021/07/27 08:58:18;;;;;;;18.05;11.45;;;29.50;62.40;;;;;;5057387;28;20100;-49
2021/07/27 09:00:43;;;;;;;22.98;10.90;;;29.50;62.30;;;;;;5058435;28;20033;-48
2021/07/27 09:03:18;;;;;;;15.55;9.90;;;29.60;62.10;;;;;;5057850;28;20455;-50
2021/07/27 09:05:45;;;;;;;21.27;12.10;;;29.60;62.10;;;;;;5058469;28;20431;-48
2021/07/27 09:08:11;;;;;;;17.80;10.30;;;29.60;61.90;;;;;;5058162;28;20040;-52
2021/07/27 09:10:40;;;;;;;21.70;11.18;;;29.70;62.20;;;;;;5057861;28;20037;-47
2021/07/27 09:13:07;;;;;;;18.85;8.98;;;29.70;62.40;;;;;;5057454;28;20429;-50
2021/07/27 09:15:35;;;;;;;20.63;11.70;;;29.70;62.20;;;;;;5058270;28;20128;-50
2021/07/27 09:18:02;;;;;;;20.52;10.13;;;29.70;62.20;;;;;;5057569;28;20362;-45
2021/07/27 09:21:02;;;;;;;17.55;10.05;;;29.80;61.90;;;;;;5058180;28;20044;-53
2021/07/27 09:23:29;;;;;;;14.32;9.18;;;29.80;61.50;;;;;;5057275;28;20037;-48
2021/07/27 09:25:57;;;;;;;22.35;10.88;;;29.80;61.40;;;;;;5057324;28;20041;-51
2021/07/27 09:28:24;;;;;;;20.10;10.43;;;29.90;61.10;;;;;;5057540;28;20041;-48
2021/07/27 09:30:56;;;;;;;14.55;10.50;;;29.90;61.10;;;;;;5057322;28;20036;-50
2021/07/27 09:33:31;;;;;;;18.45;9.75;;;29.90;60.60;;;;;;5057813;28;20044;-47
2021/07/27 09:35:57;;;;;;;15.65;8.95;;;29.90;60.90;;;;;;5057219;28;20029;-53
2021/07/27 09:38:25;;;;;;;19.08;9.43;;;29.90;61.20;;;;;;5057471;28;20165;-46
2021/07/27 09:41:00;;;;;;;17.27;9.52;;;30.00;61.20;;;;;;5057019;28;20037;-50
2021/07/27 09:43:27;;;;;;;14.50;8.77;;;30.10;61.10;;;;;;5057725;28;20419;-50
2021/07/27 09:45:55;;;;;;;16.98;8.77;;;30.20;61.10;;;;;;5057187;28;20036;-51
2021/07/27 09:48:22;;;;;;;13.50;8.80;;;30.20;61.50;;;;;;5057761;28;20452;-47
2021/07/27 09:50:50;;;;;;;16.60;8.55;;;30.20;60.80;;;;;;5057517;28;20033;-47
2021/07/27 09:53:16;;;;;;;19.60;9.45;;;30.30;60.80;;;;;;5055675;28;20355;-45
2021/07/27 09:55:42;;;;;;;18.85;8.80;;;30.40;60.90;;;;;;5057605;28;20155;-52
2021/07/27 09:58:08;;;;;;;17.92;8.40;;;30.40;60.70;;;;;;5057123;28;20039;-52
2021/07/27 10:00:38;;;;;;;18.00;9.77;;;30.40;59.90;;;;;;5056537;28;20099;-45
2021/07/27 10:03:05;;;;;;;16.85;9.18;;;30.50;59.40;;;;;;5056433;28;20028;-50
2021/07/27 10:05:32;;;;;;;15.30;9.02;;;30.50;59.20;;;;;;5057469;28;20118;-47
2021/07/27 10:07:58;;;;;;;16.95;10.15;;;30.50;58.50;;;;;;5056805;28;20083;-45
2021/07/27 10:10:43;;;;;;;11.95;9.35;;;30.60;58.00;;;;;;5057318;28;20111;-47
2021/07/27 10:13:10;;;;;;;10.88;8.93;;;30.60;57.90;;;;;;5056215;28;20040;-51
2021/07/27 10:15:41;;;;;;;18.08;9.02;;;30.70;58.60;;;;;;5056936;28;20045;-46
2021/07/27 10:18:07;;;;;;;18.05;8.85;;;30.70;58.40;;;;;;5056894;28;20031;-44
2021/07/27 10:20:33;;;;;;;12.18;6.53;;;30.80;56.60;;;;;;5056853;28;20116;-45
2021/07/27 10:22:59;;;;;;;11.90;5.93;;;30.80;54.60;;;;;;5056369;28;20023;-45
2021/07/27 10:25:25;;;;;;;9.73;6.10;;;31.00;53.60;;;;;;5056744;28;20037;-47
2021/07/27 10:27:55;;;;;;;11.63;6.05;;;31.00;53.00;;;;;;5055274;28;20440;-48
2021/07/27 10:30:31;;;;;;;15.50;9.38;;;31.10;52.70;;;;;;5056554;28;20446;-46
2021/07/27 10:32:57;;;;;;;8.65;5.57;;;31.10;52.60;;;;;;5056431;28;20166;-45
2021/07/27 10:35:31;;;;;;;9.15;5.03;;;31.20;52.10;;;;;;5056203;28;20044;-49
2021/07/27 10:38:13;;;;;;;14.80;7.35;;;31.30;51.20;;;;;;5056337;28;20385;-53
2021/07/27 10:40:42;;;;;;;8.27;4.40;;;31.40;51.20;;;;;;5056285;28;20032;-47
2021/07/27 10:43:09;;;;;;;7.40;4.40;;;31.40;49.90;;;;;;5056691;28;20429;-48
2021/07/27 10:45:35;;;;;;;13.30;5.90;;;31.50;49.70;;;;;;5055587;28;20033;-50
2021/07/27 10:48:01;;;;;;;11.85;6.07;;;31.60;50.00;;;;;;5056664;28;20025;-53
2021/07/27 10:50:29;;;;;;;12.98;4.78;;;31.60;49.40;;;;;;5056571;28;20447;-48
2021/07/27 10:53:13;;;;;;;13.98;6.70;;;31.70;48.80;;;;;;5056525;28;20037;-46
2021/07/27 10:55:43;;;;;;;12.80;5.90;;;31.80;49.00;;;;;;5056697;28;20113;-45
2021/07/27 10:58:18;;;;;;;12.55;5.38;;;31.80;49.00;;;;;;5056434;28;20028;-49
2021/07/27 11:00:44;;;;;;;10.13;6.05;;;31.80;48.50;;;;;;5055927;28;20437;-46
2021/07/27 11:03:10;;;;;;;7.10;4.65;;;31.90;48.80;;;;;;5056049;28;20040;-44
2021/07/27 11:05:36;;;;;;;7.78;3.95;;;31.90;48.40;;;;;;5055962;28;20032;-47
2021/07/27 11:08:02;;;;;;;15.35;4.43;;;31.90;47.40;;;;;;5055957;28;20108;-49
2021/07/27 11:10:31;;;;;;;8.48;3.42;;;31.90;47.30;;;;;;5056179;28;20350;-52
2021/07/27 11:12:58;;;;;;;7.32;3.88;;;32.00;46.90;;;;;;5056215;28;20309;-52
2021/07/27 11:15:28;;;;;;;8.63;5.70;;;32.10;46.50;;;;;;5056044;28;20056;-53
2021/07/27 11:17:59;;;;;;;16.05;5.28;;;32.10;46.80;;;;;;5055866;28;20090;-45
2021/07/27 11:20:27;;;;;;;8.50;5.10;;;32.30;46.40;;;;;;5056041;28;20088;-49
2021/07/27 11:23:01;;;;;;;11.45;4.35;;;32.30;46.60;;;;;;5055855;28;20078;-53
2021/07/27 11:25:28;;;;;;;13.30;5.15;;;32.40;46.00;;;;;;5055570;28;20038;-44
2021/07/27 11:27:55;;;;;;;15.95;5.78;;;32.50;46.70;;;;;;5055820;28;20115;-50
2021/07/27 11:30:22;;;;;;;5.95;4.60;;;32.60;46.70;;;;;;5055540;28;20099;-47
2021/07/27 11:32:50;;;;;;;5.85;3.92;;;32.70;46.10;;;;;;5055474;28;20216;-53
2021/07/27 11:35:24;;;;;;;7.03;3.63;;;32.80;45.50;;;;;;5055361;28;20055;-53
2021/07/27 11:38:02;;;;;;;7.72;4.50;;;32.90;44.80;;;;;;5055621;28;20033;-53
2021/07/27 11:40:29;;;;;;;5.05;4.25;;;33.00;44.70;;;;;;5055310;28;20275;-54
2021/07/27 11:43:06;;;;;;;8.57;4.53;;;33.10;44.50;;;;;;5055423;28;20131;-53
2021/07/27 11:45:32;;;;;;;6.90;3.95;;;33.30;44.40;;;;;;5054978;28;20049;-49
2021/07/27 11:47:58;;;;;;;9.88;4.90;;;33.30;44.50;;;;;;5055277;28;20052;-47
2021/07/27 11:50:38;;;;;;;8.38;4.05;;;33.40;44.60;;;;;;5055550;28;20479;-52
2021/07/27 11:53:07;;;;;;;5.28;3.97;;;33.50;44.00;;;;;;5055203;28;20033;-52
2021/07/27 11:55:39;;;;;;;6.13;4.10;;;33.60;44.00;;;;;;5055531;28;20432;-50
2021/07/27 11:58:06;;;;;;;8.20;3.88;;;33.70;43.50;;;;;;5055168;28;20037;-46
2021/07/27 12:00:34;;;;;;;14.05;5.13;;;33.90;43.90;;;;;;5055056;28;20047;-54
2021/07/27 12:03:00;;;;;;;7.10;4.68;;;34.00;43.80;;;;;;5055215;28;20037;-54
2021/07/27 12:05:27;;;;;;;8.85;4.15;;;34.10;43.60;;;;;;5055460;28;20025;-48
2021/07/27 12:07:52;;;;;;;8.60;6.75;;;34.20;42.90;;;;;;5055611;28;20344;-48
2021/07/27 12:10:18;;;;;;;6.65;5.88;;;34.30;42.60;;;;;;5055317;28;20029;-53
2021/07/27 12:12:44;;;;;;;12.20;5.25;;;34.40;42.40;;;;;;5055631;28;20041;-49
2021/07/27 12:15:15;;;;;;;9.20;4.60;;;34.60;42.50;;;;;;5054827;28;20449;-52
2021/07/27 12:17:42;;;;;;;7.90;4.00;;;34.70;42.80;;;;;;5055495;28;20064;-52
2021/07/27 12:20:13;;;;;;;10.32;4.55;;;34.80;41.90;;;;;;5055011;28;20160;-45
2021/07/27 12:22:40;;;;;;;8.85;4.57;;;35.00;42.20;;;;;;5055328;28;20032;-45
2021/07/27 12:25:06;;;;;;;7.28;3.92;;;35.10;41.10;;;;;;5057247;28;20312;-44
2021/07/27 12:27:32;;;;;;;6.82;5.35;;;35.20;40.80;;;;;;5059148;28;20119;-53
2021/07/27 12:29:57;;;;;;;7.30;4.47;;;35.40;40.30;;;;;;5058784;28;20175;-44
2021/07/27 12:32:23;;;;;;;7.68;4.85;;;35.50;40.60;;;;;;5058844;28;20090;-46
2021/07/27 12:34:51;;;;;;;7.05;5.78;;;35.60;40.00;;;;;;5058588;28;20068;-49
2021/07/27 12:37:18;;;;;;;6.70;4.38;;;35.70;40.20;;;;;;5058442;28;20029;-53
2021/07/27 12:39:45;;;;;;;6.13;5.13;;;35.80;40.10;;;;;;5058766;28;20395;-53
2021/07/27 12:42:10;;;;;;;5.00;3.85;;;36.00;40.00;;;;;;5058689;28;20313;-46
2021/07/27 12:44:36;;;;;;;6.10;3.80;;;36.10;38.90;;;;;;5058564;28;20032;-50
2021/07/27 12:47:03;;;;;;;10.75;4.90;;;36.30;38.90;;;;;;5058800;28;20025;-53
2021/07/27 12:49:29;;;;;;;6.07;5.13;;;36.40;39.30;;;;;;5058560;28;20131;-46
2021/07/27 12:51:54;;;;;;;13.85;6.18;;;36.50;39.20;;;;;;5058190;28;20107;-45
2021/07/27 12:54:20;;;;;;;6.95;5.18;;;36.60;39.10;;;;;;5058546;28;20033;-51
2021/07/27 12:56:46;;;;;;;8.68;5.25;;;36.70;38.90;;;;;;5058572;28;20406;-53
2021/07/27 12:59:11;;;;;;;9.13;4.53;;;36.80;38.70;;;;;;5058719;28;20439;-46
2021/07/27 13:01:37;;;;;;;5.78;4.53;;;36.90;37.90;;;;;;5053545;28;20321;-53